Startpagina
METAR-TAF:

METAR-TAF

Vliegvelden :

Flughafen Mönchengladbach

Mönchengladbach, Duitsland

breedte: 51-13-49N, lengte: 006-30-16E, hoogte: 38 m

Actueel weer

Dit bericht is 43 minuten geleden gemaakt, om 05:50 UTC
Wind 5 kt uit het oostzuidoosten
Temperatuur 4°C
Vochtigheid 93%
Druk 1023 hPa
Zicht 10 km of meer
geen wolken onder 1500 m en geen cumulonimbus

METAR: EDLN 180550Z 11005KT CAVOK 04/03 Q1023

Tijdstip: 08:33 (06:33 UTC)

Verwachting

Dit bericht is 13 uur en het 33 minuten geleden gemaakt, om 17:00 UTC
Verwachting geldig van 17 om 18 UTC tot 18 om 03 UTC
Wind 3 kt uit variabele richting
Zicht 10 km of meer
geen wolken onder 1500 m en geen cumulonimbus

TAF: EDLN 171700Z 1718/1803 VRB03KT CAVOK

Waarnemingen en weersverwachtingen van meer dan 4000 vliegvelden (METAR en TAF).

De beschikbare stations zijn de gele en rode punten op de kaart.

Ga met uw muis naar het station om de naam te zien.

Klik dan om waarnemingen en weersverwachtingen te zien.

kaart wijzigen: klik op de groene knoppen met een zwart kruis om in te zoomen, op de groene knop met een streepje om uit te zoomen of op de groene pijlen voor aangrenzende kaarten.


METAR-TAF: